LOWILOWS

Guest
Details From LOWI - Innsbruck Kranebitten
To LOWS - Salzburg Maxglan
Flight Number -
Tags decoded
Created
Modified
Stats Distance 88 nm / 163 km
Max Altitude 0 ft / 0 m
Waypoints 4
Social Downloads 1
Likes 0
Share VATSIM

Download

Looking for another format? Having issues loading an existing format? Contact us
Advertisement - Login to hide

Notes

Requested: LOWI RTT SBG LOWS

Route

LOWI RTT SBG LOWS

ID Type Via Altitude Latitude Longitude Leg Dist Tot Dist Heading (true) Name
O LOWI APT - 0 ft / 0 m 47.26023˚ 11.34397˚ - 0 nm - Innsbruck Kranebitten
RTT NDB - 0 ft / 0 m 47.43092˚ 11.94005˚ 26 nm 26 nm 67° / 67° RATTENBERG NDB
SBG NDB - 0 ft / 0 m 47.96753˚ 12.89408˚ 50 nm 76 nm 50° / 50° SALZBURG NDB
O LOWS APT - 0 ft / 0 m 47.79333˚ 13.00433˚ 11 nm 87 nm 157° / 157° Salzburg Maxglan

Altitude Profile

Advertisement - Login to hide

LOWI

Details ICAO LOWI (INN)
Name Innsbruck Kranebitten
Region Austria
Timezone Europe/Vienna (UTC+1.0)
Stats Elevation 1,906 ft / 581 m (AMSL)
Location 47.260226° 11.343967°
Runways 1
Magnetic Variation 3.020° E

METAR

LOWI 161420Z VRB01KT 9999 FEW030 SCT060 BKN070 01/M03 Q1010 R08/19//95 TEMPO FM1530 4000 SHSN BKN013

Decode

TAF

TAF LOWI 161115Z 1612/1712 27007KT 9999 SCT060 BKN090 TX01/1613Z TNM01/1707Z BECMG 1613/1615 8000 -SN SCT030 BKN060 TEMPO 1615/1621 1500 SHSN VV008 TEMPO 1621/1703 3000 -SN BR VV010 TEMPO 1703/1712 1200 SHSN VV007 PROB40 TEMPO 1710/1712 30012G25KT

Decode

Departure Runways

ID Width Length Bearing (true) Bearing (mag) Surface Threshold Offset Overrun Length
08 148 ft / 45 m 6,545 ft / 1,995 m 81.02° 78.00° Asphalt 338 ft / 103 m 0 ft / 0 m
26 148 ft / 45 m 6,545 ft / 1,995 m 261.04° 258.02° Asphalt 0 ft / 0 m 0 ft / 0 m

LOWS

Details ICAO LOWS (SZG)
Name Salzburg Maxglan
Region Austria
Timezone Europe/Vienna (UTC+1.0)
Stats Elevation 1,411 ft / 430 m (AMSL)
Location 47.793333° 13.004333°
Runways 1
Magnetic Variation 3.428° E

METAR

LOWS 161420Z 27005KT 9999 -SHRA FEW012 SCT028 BKN038 03/00 Q1010 TEMPO 4000 SHRASN

Decode

TAF

TAF LOWS 161115Z 1612/1712 15005KT 9999 -SN FEW030 BKN050 TX02/1613Z TNM01/1706Z TEMPO 1618/1712 29007KT 4000 SN FEW008 BKN025 PROB40 TEMPO 1618/1700 29010KT 1500 SCT008 BKN012

Decode

Destination Runways

ID Width Length Bearing (true) Bearing (mag) Surface Threshold Offset Overrun Length
16 148 ft / 45 m 9,024 ft / 2,751 m 157.08° 153.65° Concrete 656 ft / 200 m 0 ft / 0 m
34 148 ft / 45 m 9,024 ft / 2,751 m 337.09° 333.66° Concrete 787 ft / 240 m 0 ft / 0 m

Approach Navaids

Runway Type Ident Frequency Range Bearing (true) Bearing (mag) Slope Elevation
16 Localiser OES 109.90 MHz 18 nm / 33 km 157.53° 154.11° - 1,411 ft / 430 m (AMSL)
16 Glidescope OES 109.90 MHz 10 nm / 19 km 157.09° 153.66° 3.00° 1,446 ft / 441 m (AMSL)
16 DME OES 109.90 MHz 18 nm / 33 km - - - 1,446 ft / 441 m (AMSL)

Popular Alternatives